Cape San Blas, Florida
Current Conditions -  °F | °C
As of 12:53 AM on Monday 24 Nov 2014 (Local Time) from KAAF Reporting Station
Overcast Overcast  
Wind Chill: 69°   Ceiling: 6000
Heat Index: 69°   Visibility: 9mi
Dew Point: 66°   Wind: 7mph
Humidity: 90%   Direction: 170°S
Pressure: 29.82"   Gusts: NA
Location:  29.8451°N, 85.2061°W
Report Text: KAAF 240553Z AUTO 17006KT 9SM FEW036 SCT046 OVC060 21/19 A2982 RMK AO2 SLP099 T02060189 10206 20189 58008 TSNO
Loading
Personal Weather Stations






























Interactive Weather Map New forecast layout! Learn more

10-Day Weather Forecast

Advertisements
Track Severe Weather on mobile